Bauang Weathercam more information Bauang Weathercam


Thunder radar more information blitzortung!


Rain radar more information rain snow radar


Visit other webcamsites:

Live CameraLivecam

EarthCamLivecam

YoutubeYoutube live stream



Nearby METAR Reports

   
RPLC - Angeles/Pampanga, Philippines
Distance from station: S 165 km
Updated: 06-04-2020 03:00
Few Clouds  
Few Clouds  
   Wind: WSW 1 m/s
Wind: WSW 1 m/s
Temperature: 25°C
Dew Point: 18°C
Humidity: 65%
Barometer: 1013 hPa
Clouds: Few Clouds
Visibility: More than 10 km
Cloud details: Few Clouds 609.6 m
RPLC 051900Z 25002KT 9999 FEW020 25/18 Q1013 NOSIG RMK A2991
RPLI - Laoag Intl(Ph-Ar, Philippines
Distance from station: N 172 km
Updated: 06-04-2020 02:00
NOT Current
Few Clouds  
Few Clouds  
   Wind: NE 2.1 m/s
Wind: NE 2.1 m/s
Temperature: 25°C
Dew Point: 22°C
Humidity: 83%
Barometer: 1011 hPa
Clouds: Few Clouds
Visibility: More than 10 km
Cloud details: Few Clouds 548.6 m
RPLI 051800Z 04004KT 9999 FEW018 25/22 Q1011 NOSIG RMK A2985
RPLB - Olongapo/Subic, Philippines
Distance from station: S 203 km
Updated: 06-04-2020 03:00
Few Clouds  
Few Clouds  
   Wind: ENE 3.1 m/s
Wind: ENE 3.1 m/s
Temperature: 24°C
Dew Point: 20°C
Humidity: 78%
Barometer: 1012 hPa
Clouds: Few Clouds
Visibility: More than 10 km
Cloud details: Few Clouds 609.6 m
RPLB 051900Z 07006KT 9999 FEW020 24/20 Q1012 NOSIG RMK A2988
RPLL - Ninoy Aquino Int, Philippines
Distance from station: SSE 246 km
Updated: 06-04-2020 03:00
Few Clouds  
Few Clouds  
   Wind: East 1.5 m/s
Wind: East 1.5 m/s
Temperature: 26°C
Dew Point: 21°C
Humidity: 74%
Barometer: 1011 hPa
Clouds: Few Clouds
Visibility: More than 10 km
Cloud details: Few Clouds 762 m
RPLL 051900Z 09003KT 060V130 9999 FEW025 26/21 Q1011 NOSIG RMK A2985
RPMR - Romblon/Tablas I, Philippines
Distance from station: SSE 498 km
Updated: 05-04-2020 17:00
NOT Current
Few Clouds  
Few Clouds  
   Wind: NE 4.1 m/s
Wind: NE 4.1 m/s
Temperature: 31°C
Heat Index: 34°C
Dew Point: 21°C
Humidity: 55%
Barometer: 1010 hPa
Clouds: Few Clouds
Visibility: More than 10 km
Cloud details: Few Clouds 548.6 m
RPMR 050900Z 04008KT 9999 FEW018 31/21 Q1010 NOSIG RMK A2983
RPVP - Puerto Princesa, Philippines
Distance from station: SSW 778 km
Updated: 06-04-2020 02:00
NOT Current
Few Clouds  
Few Clouds  
   Wind: NW 1 m/s
Wind: NW 1 m/s
Temperature: 27°C
Heat Index: 30°C
Dew Point: 24°C
Humidity: 84%
Barometer: 1011 hPa
Clouds: Few Clouds
Visibility: More than 10 km
Cloud details: Few Clouds 579.1 m
RPVP 051800Z 31002KT 9999 FEW019 27/24 Q1011 RMK A2985
RPVM - Mactan-Cebu, Philippines
Distance from station: SSE 800 km
Updated: 06-04-2020 03:00
Partly Cloudy  
Partly Cloudy  
   Wind: East 2.6 m/s
Wind: East 2.6 m/s
Temperature: 27°C
Heat Index: 29°C
Dew Point: 21°C
Humidity: 70%
Barometer: 1012 hPa
Clouds: Partly Cloudy
Visibility: More than 10 km
Cloud details: Few Clouds 609.6 m,
Partly Cloudy 3048 m
RPVM 051900Z 09005KT 060V120 9999 FEW020 SCT100 27/21 Q1012 NOSIG RMK A2988
RPMZ - Zamboanga (civ/A, Philippines
Distance from station: S 1090 km
Updated: 06-04-2020 02:00
NOT Current
Few Clouds  
Few Clouds  
   Wind: WNW 1.5 m/s
Wind: WNW 1.5 m/s
Temperature: 25°C
Dew Point: 23°C
Humidity: 89%
Barometer: 1011 hPa
Clouds: Few Clouds
Visibility: More than 10 km
Cloud details: Few Clouds 518.2 m
RPMZ 051800Z 29003KT 9999 FEW017 25/23 Q1011 RMK A2985
RPMD - Davao/Francisco, Philippines
Distance from station: SSE 1198 km
Updated: 06-04-2020 03:00
Partly Cloudy  
Partly Cloudy  
   Wind: NNW 1.5 m/s
Wind: NNW 1.5 m/s
Temperature: 25°C
Dew Point: 22°C
Humidity: 83%
Barometer: 1011 hPa
Clouds: Partly Cloudy
Visibility: More than 10 km
Cloud details: Few Clouds 487.7 m,
Partly Cloudy 2743.2 m
RPMD 051900Z 34003KT 310V030 9999 FEW016 SCT090 25/22 Q1011 RMK A2985

Script developed by  Saratoga-weather.org Adapted for the template by  Weerstation Leuven

You find our weather info also at:

WeatherCloud

Austria Weather Network

HAMweather, WeatherForYou, PWS Weather

Philippine Atmospheric, Geophysical and Astronomical Services Administration